Time;durP1;ratioP1;P1;durP2;ratioP2;P2;SDS_P1;SDS_P2;PMS_P1;PMS_P2;Temp;Humidity;BMP_temperature;BMP_pressure;BME280_temperature;BME280_humidity;BME280_pressure;Samples;Min_cycle;Max_cycle;Signal;HPM_P1;HPM_P2
2022/09/04 00:00:09;;;;;;;;;15.50;14.25;;;;;22.19;52.47;100998.69;5023233;28;45422;-82
2022/09/04 00:03:25;;;;;;;;;12.00;12.00;;;;;22.17;52.29;101000.53;5021449;28;45276;-81
2022/09/04 00:05:57;;;;;;;;;14.50;13.25;;;;;22.16;52.21;101005.03;5021288;28;46152;-81
2022/09/04 00:08:38;;;;;;;;;13.75;10.50;;;;;22.18;52.16;101013.00;5021255;28;45312;-82
2022/09/04 00:11:43;;;;;;;;;14.25;14.00;;;;;22.16;52.03;101006.81;5022877;28;45417;-81
2022/09/04 00:14:33;;;;;;;;;14.00;12.75;;;;;22.18;51.72;101021.94;5014978;28;45297;-81
2022/09/04 00:17:07;;;;;;;;;13.00;13.00;;;;;22.15;51.78;101011.31;5022362;28;45321;-82
2022/09/04 00:19:38;;;;;;;;;15.25;14.25;;;;;22.17;51.74;101025.53;5021224;28;45287;-81
2022/09/04 00:22:44;;;;;;;;;11.50;11.50;;;;;22.18;51.55;101018.34;5021177;28;45469;-81
2022/09/04 00:25:31;;;;;;;;;10.75;9.75;;;;;22.18;51.39;101029.09;5020810;28;45927;-82
2022/09/04 00:28:09;;;;;;;;;13.00;9.50;;;;;22.16;51.48;101025.59;5021325;28;45624;-82
2022/09/04 00:30:49;;;;;;;;;10.75;10.75;;;;;22.16;51.04;101026.50;5022220;28;45485;-81
2022/09/04 00:33:53;;;;;;;;;10.00;8.00;;;;;22.13;50.80;101029.31;5022479;28;45412;-82
2022/09/04 00:36:23;;;;;;;;;7.00;7.00;;;;;22.11;50.81;101023.16;5000424;28;45414;-82
2022/09/04 00:38:59;;;;;;;;;11.00;9.67;;;;;22.08;50.68;101026.00;5013971;28;47111;-81
2022/09/04 00:41:31;;;;;;;;;8.00;8.00;;;;;22.05;50.95;101031.47;5021408;28;45265;-82
2022/09/04 00:44:15;;;;;;;;;10.25;8.25;;;;;22.06;50.61;101033.22;5021422;28;45503;-82
2022/09/04 00:46:50;;;;;;;;;9.00;9.00;;;;;22.04;50.30;101027.06;5020492;28;45521;-82
2022/09/04 00:49:39;;;;;;;;;6.25;5.25;;;;;22.02;50.42;101034.31;5019806;28;46955;-81
2022/09/04 00:52:42;;;;;;;;;8.00;8.00;;;;;21.99;50.18;101038.00;5020663;28;45477;-82
2022/09/04 00:55:43;;;;;;;;;7.75;7.75;;;;;21.93;50.17;101040.97;5013640;28;45461;-81
2022/09/04 00:58:11;;;;;;;;;8.75;8.00;;;;;21.94;49.64;101039.16;5020585;28;45620;-80
2022/09/04 01:00:37;;;;;;;;;6.75;6.75;;;;;21.88;49.53;101040.31;5020492;28;48620;-82
2022/09/04 01:03:06;;;;;;;;;7.00;6.00;;;;;21.88;49.75;101048.34;5020529;28;45280;-82
2022/09/04 01:06:14;;;;;;;;;8.00;7.25;;;;;21.86;49.72;101050.22;5021983;28;45421;-81
2022/09/04 01:08:54;;;;;;;;;9.33;8.67;;;;;21.83;50.29;101053.06;5020286;28;45343;-82
2022/09/04 01:11:42;;;;;;;;;7.00;7.00;;;;;21.84;49.76;101056.59;5020344;28;47953;-82
2022/09/04 01:14:32;;;;;;;;;6.00;6.00;;;;;21.82;49.76;101053.13;5020336;28;45778;-81
2022/09/04 01:17:23;;;;;;;;;6.00;5.50;;;;;21.79;49.77;101060.38;5020346;28;45296;-82
2022/09/04 01:20:18;;;;;;;;;6.75;6.75;;;;;21.76;49.68;101065.88;5020323;28;45546;-82
2022/09/04 01:23:12;;;;;;;;;8.67;8.00;;;;;21.73;49.41;101073.16;5021654;28;46178;-82
2022/09/04 01:25:59;;;;;;;;;5.00;5.00;;;;;21.68;49.37;101064.47;5020699;28;46016;-81
2022/09/04 01:28:49;;;;;;;;;7.33;6.67;;;;;21.65;49.28;101064.59;5020791;28;45317;-82
2022/09/04 01:31:39;;;;;;;;;6.00;6.00;;;;;21.61;49.05;101073.72;5020401;28;45889;-82
2022/09/04 01:34:42;;;;;;;;;4.00;4.00;;;;;21.56;49.00;101079.28;5021304;28;45410;-82
2022/09/04 01:37:10;;;;;;;;;5.00;5.00;;;;;21.51;49.06;101079.47;5021252;28;45404;-82
2022/09/04 01:39:40;;;;;;;;;5.00;5.00;;;;;21.45;48.63;101073.53;5019585;28;45332;-81
2022/09/04 01:42:16;;;;;;;;;5.00;5.00;;;;;21.44;48.37;101066.41;5021125;28;45586;-80
2022/09/04 01:44:42;;;;;;;;;6.00;6.00;;;;;21.40;48.80;101071.03;5021077;28;46076;-81
2022/09/04 01:47:16;;;;;;;;;5.00;5.00;;;;;21.34;48.91;101080.19;5019594;28;45592;-81
2022/09/04 01:50:01;;;;;;;;;6.67;6.00;;;;;21.25;48.95;101082.38;5019939;28;45436;-81
2022/09/04 01:52:35;;;;;;;;;5.00;3.33;;;;;21.22;48.73;101083.38;5021096;28;45458;-81
2022/09/04 01:55:11;;;;;;;;;5.33;4.33;;;;;21.17;49.05;101076.47;5019143;28;48052;-81
2022/09/04 01:57:53;;;;;;;;;5.33;5.00;;;;;21.12;48.97;101088.28;5020748;28;45427;-81
2022/09/04 02:00:22;;;;;;;;;8.67;7.00;;;;;21.03;49.19;101080.63;5019894;28;45285;-81
2022/09/04 02:03:09;;;;;;;;;6.00;6.00;;;;;20.99;49.27;101083.50;5020792;28;45419;-81
2022/09/04 02:05:43;;;;;;;;;5.67;5.33;;;;;20.90;49.41;101082.94;5020674;28;46056;-80
2022/09/04 02:08:14;;;;;;;;;4.67;4.67;;;;;20.89;49.53;101099.06;5019579;28;45328;-81
2022/09/04 02:11:11;;;;;;;;;8.00;6.00;;;;;20.85;49.92;101097.44;5019601;28;45259;-81
2022/09/04 02:14:05;;;;;;;;;4.33;4.33;;;;;20.81;49.84;101093.16;5020887;28;45538;-81
2022/09/04 02:16:36;;;;;;;;;5.00;5.00;;;;;20.77;49.75;101088.84;5020775;28;45253;-81
2022/09/04 02:19:29;;;;;;;;;6.00;6.00;;;;;20.74;50.31;101097.88;5019401;28;45259;-81
2022/09/04 02:22:02;;;;;;;;;4.50;4.50;;;;;20.68;50.37;101096.31;5019566;28;45737;-80
2022/09/04 02:24:47;;;;;;;;;5.25;5.25;;;;;20.66;50.26;101106.22;5020632;28;45422;-81
2022/09/04 02:27:25;;;;;;;;;6.75;6.75;;;;;20.66;50.62;101110.69;5020563;28;46575;-81
2022/09/04 02:30:15;;;;;;;;;5.50;5.00;;;;;20.61;50.33;101118.00;5020658;28;45481;-80
2022/09/04 02:33:14;;;;;;;;;6.25;5.75;;;;;20.55;50.19;101116.47;5020819;28;45336;-82
2022/09/04 02:35:59;;;;;;;;;7.50;7.25;;;;;20.47;50.31;101123.88;5019025;28;45514;-82
2022/09/04 02:38:55;;;;;;;;;6.50;5.25;;;;;20.42;50.32;101123.19;5020213;28;46253;-82
2022/09/04 02:41:34;;;;;;;;;3.00;3.00;;;;;20.37;50.26;101122.47;5019076;28;45454;-81
2022/09/04 02:44:37;;;;;;;;;6.75;5.75;;;;;20.32;50.74;101135.19;5019191;28;45462;-81
2022/09/04 02:47:30;;;;;;;;;8.00;8.00;;;;;20.24;50.48;101138.16;5018843;28;45617;-81
2022/09/04 02:50:37;;;;;;;;;6.00;4.67;;;;;20.20;50.73;101137.38;5018661;28;46292;-82
2022/09/04 02:53:09;;;;;;;;;5.00;4.00;;;;;20.15;50.66;101151.84;5003543;28;45233;-81
2022/09/04 02:55:38;;;;;;;;;4.33;4.33;;;;;20.12;50.73;101143.94;5016335;28;45495;-82
2022/09/04 02:58:16;;;;;;;;;4.50;4.50;;;;;20.08;50.90;101153.03;5020169;28;45287;-82
2022/09/04 03:00:56;;;;;;;;;7.75;5.25;;;;;20.07;51.19;101143.22;5018612;28;47080;-82
2022/09/04 03:03:41;;;;;;;;;4.50;3.75;;;;;20.04;51.52;101145.09;5020181;28;45251;-81
2022/09/04 03:06:43;;;;;;;;;5.25;5.25;;;;;20.03;51.35;101145.16;5018732;28;45193;-82
2022/09/04 03:09:18;;;;;;;;;5.50;5.50;;;;;20.01;51.08;101133.66;5019750;28;45491;-82
2022/09/04 03:12:09;;;;;;;;;5.25;5.25;;;;;19.98;51.41;101142.66;5019165;28;46586;-82
2022/09/04 03:14:45;;;;;;;;;6.50;6.00;;;;;19.95;50.89;101139.22;5020571;28;45227;-81
2022/09/04 03:17:31;;;;;;;;;4.25;4.25;;;;;19.94;51.18;101137.47;5020723;28;45282;-82
2022/09/04 03:20:30;;;;;;;;;3.75;3.00;;;;;19.94;50.96;101142.81;5018929;28;45418;-82
2022/09/04 03:23:11;;;;;;;;;4.50;4.50;;;;;19.91;51.04;101157.16;5019950;28;45352;-82
2022/09/04 03:25:56;;;;;;;;;5.50;5.50;;;;;19.86;51.54;101150.22;5002195;28;45370;-82
2022/09/04 03:28:31;;;;;;;;;5.75;4.50;;;;;19.84;51.76;101144.97;4998811;28;45465;-82
2022/09/04 03:31:12;;;;;;;;;6.75;6.75;;;;;19.79;51.46;101145.09;4998361;28;45438;-82
2022/09/04 03:33:50;;;;;;;;;4.00;4.00;;;;;19.82;51.35;101149.47;4998308;28;47488;-82
2022/09/04 03:36:39;;;;;;;;;6.25;5.00;;;;;19.80;51.39;101151.31;4999816;28;45469;-82
2022/09/04 03:39:43;;;;;;;;;6.00;5.00;;;;;19.76;51.50;101160.38;4998475;28;45562;-82
2022/09/04 03:42:52;;;;;;;;;4.75;3.75;;;;;19.71;51.12;101151.66;4998378;28;45390;-82
2022/09/04 03:45:23;;;;;;;;;4.00;3.33;;;;;19.71;51.42;101152.53;5016533;28;47251;-82
2022/09/04 03:47:58;;;;;;;;;7.25;6.00;;;;;19.69;51.58;101148.16;5019250;28;45477;-81
2022/09/04 03:50:47;;;;;;;;;6.67;4.67;;;;;19.71;51.21;101149.00;5021036;28;45419;-81
2022/09/04 03:53:12;;;;;;;;;4.00;4.00;;;;;19.70;51.01;101158.81;5019064;28;45231;-82
2022/09/04 03:56:00;;;;;;;;;4.50;3.75;;;;;19.68;51.00;101163.31;5018924;28;45370;-82
2022/09/04 03:59:07;;;;;;;;;5.00;5.00;;;;;19.66;51.20;101161.59;5018080;28;45461;-82
2022/09/04 04:02:05;;;;;;;;;5.33;5.33;;;;;19.64;51.35;101166.97;4980671;28;45707;-82
2022/09/04 04:05:01;;;;;;;;;4.33;4.33;;;;;19.61;51.85;101162.63;5017781;28;45454;-82
2022/09/04 04:07:51;;;;;;;;;6.75;5.75;;;;;19.63;51.42;101178.59;5019007;28;45445;-82
2022/09/04 04:10:51;;;;;;;;;4.75;4.75;;;;;19.59;51.47;101166.25;5017815;28;45418;-82
2022/09/04 04:13:55;;;;;;;;;5.75;5.75;;;;;19.60;51.44;101166.22;5019390;28;45276;-82
2022/09/04 04:16:33;;;;;;;;;3.50;3.50;;;;;19.62;51.73;101182.22;5011910;28;45256;-81
2022/09/04 04:19:20;;;;;;;;;7.00;6.00;;;;;19.60;51.34;101176.03;4997854;28;46435;-82
2022/09/04 04:22:23;;;;;;;;;5.75;5.00;;;;;19.51;51.49;101169.22;4997843;28;45273;-81
2022/09/04 04:25:32;;;;;;;;;7.25;6.25;;;;;19.55;51.47;101175.31;5000392;28;45428;-82
2022/09/04 04:28:00;;;;;;;;;7.00;7.00;;;;;19.54;51.79;101176.22;5011903;28;45280;-82
2022/09/04 04:30:37;;;;;;;;;4.00;4.00;;;;;19.48;51.52;101169.31;5021025;28;47204;-82
2022/09/04 04:33:02;;;;;;;;;6.00;5.00;;;;;19.55;51.96;101183.34;5021093;28;45716;-82
2022/09/04 04:35:44;;;;;;;;;7.00;6.00;;;;;19.53;51.76;101182.50;5020969;28;45443;-82
2022/09/04 04:38:25;;;;;;;;;5.00;4.50;;;;;19.51;52.06;101179.00;5022337;28;45447;-82
2022/09/04 04:40:59;;;;;;;;;2.50;2.50;;;;;19.52;51.93;101186.13;5014154;28;46153;-82
2022/09/04 04:43:51;;;;;;;;;5.25;5.00;;;;;19.47;51.68;101180.06;5000865;28;45277;-82
2022/09/04 04:46:22;;;;;;;;;6.50;6.25;;;;;19.51;51.85;101185.25;5002371;28;45276;-82
2022/09/04 04:49:16;;;;;;;;;5.50;5.50;;;;;19.53;51.69;101201.19;5020678;28;45713;-82
2022/09/04 04:52:04;;;;;;;;;5.25;5.25;;;;;19.52;52.14;101202.13;5021605;28;45442;-82
2022/09/04 04:55:17;;;;;;;;;6.50;6.50;;;;;19.57;52.12;101209.06;5020127;28;45450;-82
2022/09/04 04:58:06;;;;;;;;;5.25;5.25;;;;;19.55;51.81;101204.69;5009585;28;45453;-82
2022/09/04 05:00:41;;;;;;;;;7.00;6.00;;;;;19.57;52.03;101208.19;5022741;28;45440;-82
2022/09/04 05:03:18;;;;;;;;;5.25;5.25;;;;;19.60;52.50;101213.44;5020356;28;47267;-82
2022/09/04 05:05:52;;;;;;;;;8.25;7.75;;;;;19.60;52.44;101208.97;5020733;28;45433;-82
2022/09/04 05:08:36;;;;;;;;;7.25;6.25;;;;;19.61;52.94;101215.16;5020992;28;45454;-81
2022/09/04 05:11:34;;;;;;;;;9.25;6.50;;;;;19.56;52.93;101209.97;5020533;28;45378;-82
2022/09/04 05:14:25;;;;;;;;;9.75;8.75;;;;;19.61;53.49;101228.53;5020192;28;48192;-81
2022/09/04 05:16:58;;;;;;;;;6.75;6.50;;;;;19.57;53.65;101210.88;5020399;28;45458;-81
2022/09/04 05:20:01;;;;;;;;;7.75;7.00;;;;;19.59;53.16;101219.69;5014904;28;45417;-81
2022/09/04 05:22:35;;;;;;;;;5.50;5.50;;;;;19.59;53.24;101228.59;5000277;28;46357;-81
2022/09/04 05:25:36;;;;;;;;;6.00;6.00;;;;;19.59;53.60;101228.59;5000115;28;47038;-81
2022/09/04 05:28:16;;;;;;;;;10.25;7.00;;;;;19.56;53.70;101230.47;5018126;28;45498;-80
2022/09/04 05:31:13;;;;;;;;;7.25;7.25;;;;;19.53;53.55;101234.13;5020306;28;45439;-82
2022/09/04 05:33:58;;;;;;;;;7.50;7.00;;;;;19.58;53.27;101248.19;5021609;28;45520;-82
2022/09/04 05:36:29;;;;;;;;;7.25;7.00;;;;;19.62;53.04;101249.00;5007707;28;47140;-82
2022/09/04 05:39:19;;;;;;;;;5.75;5.75;;;;;19.66;53.17;101250.66;5001335;28;45640;-81
2022/09/04 05:41:54;;;;;;;;;6.50;6.25;;;;;19.68;53.47;101254.16;5000102;28;45564;-81
2022/09/04 05:44:41;;;;;;;;;6.25;6.25;;;;;19.73;53.48;101260.22;5000204;28;45740;-82
2022/09/04 05:47:50;;;;;;;;;10.00;7.25;;;;;19.75;53.15;101260.16;5023735;28;48169;-82
2022/09/04 05:50:44;;;;;;;;;6.75;5.50;;;;;19.80;53.29;101268.88;5019894;28;45205;-82
2022/09/04 05:53:28;;;;;;;;;5.33;5.33;;;;;19.89;52.83;101267.69;5004236;28;45276;-81
2022/09/04 05:56:31;;;;;;;;;6.75;5.75;;;;;19.94;52.92;101260.41;5018601;28;45644;-82
2022/09/04 05:59:26;;;;;;;;;5.75;4.75;;;;;19.95;52.57;101259.50;5019723;28;46589;-82
2022/09/04 06:02:42;;;;;;;;;5.75;5.75;;;;;20.06;52.73;101273.34;5019763;28;45264;-82
2022/09/04 06:05:25;;;;;;;;;7.00;7.00;;;;;20.06;52.39;101268.00;5019581;28;45266;-82
2022/09/04 06:08:05;;;;;;;;;7.00;6.00;;;;;20.13;52.25;101284.69;5019207;28;45466;-82
2022/09/04 06:11:02;;;;;;;;;12.50;12.50;;;;;20.16;52.33;101277.44;5020604;28;45655;-82
2022/09/04 06:13:52;;;;;;;;;7.50;7.50;;;;;20.22;52.04;101284.38;5019415;28;45434;-82
2022/09/04 06:16:23;;;;;;;;;6.50;6.50;;;;;20.25;52.14;101284.28;5021453;28;45478;-82
2022/09/04 06:19:14;;;;;;;;;6.33;6.00;;;;;20.31;52.40;101286.72;5019618;28;45346;-81
2022/09/04 06:22:07;;;;;;;;;7.50;7.25;;;;;20.38;51.83;101287.38;5019488;28;46276;-81
2022/09/04 06:24:51;;;;;;;;;5.75;5.75;;;;;20.44;52.06;101290.69;5019223;28;45337;-82
2022/09/04 06:27:35;;;;;;;;;7.75;7.75;;;;;20.50;52.18;101294.94;5019303;28;45199;-82
2022/09/04 06:30:08;;;;;;;;;9.00;8.75;;;;;20.47;51.86;101287.94;5019405;28;45350;-82
2022/09/04 06:32:59;;;;;;;;;6.50;6.25;;;;;20.54;52.04;101295.78;5019155;28;47047;-82
2022/09/04 06:35:52;;;;;;;;;7.75;7.00;;;;;20.54;51.98;101301.13;5019020;28;45212;-82
2022/09/04 06:38:56;;;;;;;;;5.50;5.00;;;;;20.54;51.94;101299.31;5018890;28;45239;-82
2022/09/04 06:41:36;;;;;;;;;6.25;6.25;;;;;20.56;51.48;101302.81;5020444;28;45943;-82
2022/09/04 06:44:25;;;;;;;;;6.25;5.25;;;;;20.58;51.55;101306.31;5020358;28;45509;-82
2022/09/04 06:47:20;;;;;;;;;9.50;5.75;;;;;20.63;51.59;101303.44;5017649;28;45389;-81
2022/09/04 06:50:04;;;;;;;;;10.00;6.75;;;;;20.68;51.22;101314.84;5016899;28;45459;-82
2022/09/04 06:52:30;;;;;;;;;7.50;6.50;;;;;20.71;51.46;101320.09;4999258;28;45481;-82
2022/09/04 06:55:03;;;;;;;;;8.00;8.00;;;;;20.73;51.01;101317.38;5009318;28;47190;-82
2022/09/04 06:57:49;;;;;;;;;7.25;6.00;;;;;20.76;51.23;101327.97;5020322;28;45435;-82
2022/09/04 07:00:18;;;;;;;;;6.00;6.00;;;;;20.76;51.10;101322.59;5019241;28;45441;-82
2022/09/04 07:03:23;;;;;;;;;9.00;8.25;;;;;20.79;50.69;101330.50;5018758;28;45478;-82
2022/09/04 07:05:52;;;;;;;;;5.00;5.00;;;;;20.84;50.94;101329.41;5016396;28;45186;-82
2022/09/04 07:08:42;;;;;;;;;7.00;5.75;;;;;20.86;50.80;101326.69;5018839;28;45771;-82
2022/09/04 07:11:32;;;;;;;;;6.25;6.00;;;;;20.89;51.07;101321.22;5019177;28;45254;-82
2022/09/04 07:14:15;;;;;;;;;7.00;7.00;;;;;20.91;50.85;101327.41;5020097;28;45724;-81
2022/09/04 07:17:02;;;;;;;;;12.25;10.00;;;;;20.96;50.52;101336.13;5018463;28;47433;-82
2022/09/04 07:19:49;;;;;;;;;7.75;6.00;;;;;20.97;50.71;101326.28;5020160;28;45389;-82
2022/09/04 07:22:21;;;;;;;;;8.50;8.50;;;;;21.03;50.44;101334.09;5018862;28;45745;-82
2022/09/04 07:25:01;;;;;;;;;6.00;6.00;;;;;21.05;50.50;101346.47;5018436;28;45667;-82
2022/09/04 07:27:37;;;;;;;;;6.75;6.75;;;;;21.11;50.22;101351.59;5019628;28;45515;-82
2022/09/04 07:30:06;;;;;;;;;7.50;7.50;;;;;21.17;50.53;101347.84;5018485;28;45291;-82
2022/09/04 07:32:44;;;;;;;;;7.75;7.75;;;;;21.22;50.13;101350.31;5020229;28;45410;-82
2022/09/04 07:35:28;;;;;;;;;7.25;7.25;;;;;21.27;49.93;101349.19;5018123;28;45494;-82
2022/09/04 07:38:02;;;;;;;;;7.75;5.50;;;;;21.28;50.22;101342.94;5018410;28;46557;-82
2022/09/04 07:40:40;;;;;;;;;7.50;6.25;;;;;21.30;49.76;101348.22;5018309;28;45398;-82
2022/09/04 07:43:26;;;;;;;;;8.75;7.00;;;;;21.33;49.80;101349.00;5019716;28;45427;-82
2022/09/04 07:46:04;;;;;;;;;4.75;4.75;;;;;21.40;49.88;101365.72;5019977;28;45217;-82
2022/09/04 07:48:40;;;;;;;;;6.00;6.00;;;;;21.45;49.85;101357.50;5019287;28;45308;-82
2022/09/04 07:51:14;;;;;;;;;7.25;5.00;;;;;21.55;49.75;101362.44;5018233;28;45991;-82
2022/09/04 07:54:07;;;;;;;;;5.50;4.00;;;;;21.66;49.43;101363.81;5018377;28;45192;-82
2022/09/04 07:56:59;;;;;;;;;5.25;5.25;;;;;21.72;49.12;101360.88;5015937;28;45477;-82
2022/09/04 07:59:46;;;;;;;;;5.33;5.33;;;;;21.76;49.02;101365.22;5021695;28;46293;-82
2022/09/04 08:02:20;;;;;;;;;6.33;5.67;;;;;21.80;49.02;101369.50;5010608;28;45265;-82
2022/09/04 08:04:53;;;;;;;;;7.25;7.00;;;;;21.85;49.01;101369.31;5003356;28;45413;-82
2022/09/04 08:07:47;;;;;;;;;5.33;5.33;;;;;21.92;48.66;101376.16;5001876;28;45748;-82
2022/09/04 08:10:26;;;;;;;;;6.00;6.00;;;;;22.00;48.60;101371.38;5012153;28;48444;-82
2022/09/04 08:13:19;;;;;;;;;6.00;4.67;;;;;22.07;48.30;101378.22;5022846;28;45276;-82
2022/09/04 08:16:31;;;;;;;;;5.00;5.00;;;;;22.12;48.01;101373.53;5022658;28;45323;-82
2022/09/04 08:19:18;;;;;;;;;4.25;4.25;;;;;22.20;47.59;101376.78;5004171;28;45990;-83
2022/09/04 08:21:47;;;;;;;;;6.00;6.00;;;;;22.27;47.71;101380.09;5022529;28;45367;-82
2022/09/04 08:24:21;;;;;;;;;6.00;4.50;;;;;22.34;47.75;101391.44;5022307;28;45236;-82
2022/09/04 08:27:24;;;;;;;;;5.75;5.00;;;;;22.40;47.23;101385.78;5022751;28;45241;-82
2022/09/04 08:30:09;;;;;;;;;4.33;4.33;;;;;22.46;46.98;101383.75;5023100;28;45497;-83
2022/09/04 08:33:12;;;;;;;;;3.50;3.50;;;;;22.57;46.78;101385.97;5021269;28;46153;-83
2022/09/04 08:35:52;;;;;;;;;9.50;8.50;;;;;22.67;46.62;101379.25;5022654;28;45268;-82
2022/09/04 08:38:39;;;;;;;;;8.50;7.25;;;;;22.78;46.21;101389.50;5007279;28;45264;-82
2022/09/04 08:41:24;;;;;;;;;6.25;6.25;;;;;22.84;46.04;101388.38;5001452;28;46212;-83
2022/09/04 08:44:35;;;;;;;;;5.33;4.67;;;;;22.92;45.97;101383.53;5010272;28;45282;-83
2022/09/04 08:47:09;;;;;;;;;7.00;6.00;;;;;23.04;45.59;101398.22;5020578;28;46766;-83
2022/09/04 08:50:02;;;;;;;;;5.25;5.00;;;;;23.11;45.45;101399.69;5020955;28;45331;-82
2022/09/04 08:52:43;;;;;;;;;6.75;5.75;;;;;23.18;45.37;101392.25;5020913;28;45401;-82
2022/09/04 08:55:11;;;;;;;;;4.50;4.50;;;;;23.24;45.32;101391.97;5014931;28;45499;-83
2022/09/04 08:57:42;;;;;;;;;7.25;6.75;;;;;23.31;45.08;101388.06;5020536;28;45419;-82
2022/09/04 09:00:14;;;;;;;;;4.75;4.75;;;;;23.39;44.53;101393.03;5021109;28;45371;-82
2022/09/04 09:03:07;;;;;;;;;4.00;4.00;;;;;23.48;44.34;101393.50;5020519;28;45513;-82
2022/09/04 09:05:57;;;;;;;;;3.00;3.00;;;;;23.54;43.64;101393.19;5020550;28;48507;-82
2022/09/04 09:08:41;;;;;;;;;5.25;5.25;;;;;23.62;43.63;101400.03;5020696;28;45261;-82
2022/09/04 09:11:06;;;;;;;;;4.00;4.00;;;;;23.70;43.60;101396.03;5020102;28;45323;-82
2022/09/04 09:14:10;;;;;;;;;4.33;3.67;;;;;23.78;43.18;101396.56;5022226;28;45290;-83
2022/09/04 09:16:50;;;;;;;;;1.00;1.00;;;;;23.83;42.77;101395.47;5020628;28;46121;-82
2022/09/04 09:19:19;;;;;;;;;5.67;4.33;;;;;23.91;42.30;101404.91;5021821;28;45375;-82
2022/09/04 09:22:13;;;;;;;;;5.00;4.00;;;;;23.99;42.49;101408.09;5020849;28;45468;-82
2022/09/04 09:24:51;;;;;;;;;3.33;3.33;;;;;24.08;42.05;101403.19;5020276;28;45342;-82
2022/09/04 09:27:54;;;;;;;;;4.67;3.00;;;;;24.15;41.70;101396.56;5016984;28;45478;-82
2022/09/04 09:30:21;;;;;;;;;3.00;3.00;;;;;24.21;41.50;101397.13;5002522;28;45414;-82
2022/09/04 09:32:58;;;;;;;;;2.00;2.00;;;;;24.27;41.25;101395.06;5007692;28;45291;-82
2022/09/04 09:35:54;;;;;;;;;2.00;2.00;;;;;24.33;41.28;101397.47;5005231;28;45233;-83
2022/09/04 09:38:33;;;;;;;;;3.00;3.00;;;;;24.39;41.15;101398.00;5001781;28;46526;-82
2022/09/04 09:41:05;;;;;;;;;5.00;5.00;;;;;24.49;40.37;101405.66;5001817;28;45316;-82
2022/09/04 09:44:27;;;;;;;;;4.67;4.67;;;;;24.54;40.70;101400.88;5001783;28;45436;-83
2022/09/04 09:46:57;;;;;;;;;3.00;3.00;;;;;24.58;40.36;101400.66;4995703;28;45535;-82
2022/09/04 09:49:34;;;;;;;;;3.33;3.33;;;;;24.63;40.00;101405.81;5011884;28;47160;-82
2022/09/04 09:52:05;;;;;;;;;2.67;2.67;;;;;24.65;40.12;101398.53;5013771;28;45574;-82
2022/09/04 09:55:06;;;;;;;;;3.67;3.67;;;;;24.68;39.92;101392.97;5008859;28;45465;-82
2022/09/04 09:58:10;;;;;;;;;4.00;4.00;;;;;24.77;39.97;101405.94;5019869;28;45426;-82
2022/09/04 10:01:03;;;;;;;;;3.00;3.00;;;;;24.83;39.81;101392.19;4982840;28;47471;-82
2022/09/04 10:03:38;;;;;;;;;3.67;3.67;;;;;24.90;39.50;101387.31;5019055;28;45923;-82
2022/09/04 10:06:41;;;;;;;;;3.33;3.33;;;;;24.95;39.73;101393.34;5021373;28;45344;-82
2022/09/04 10:09:12;;;;;;;;;3.00;3.00;;;;;25.02;39.81;101386.69;5019828;28;45660;-82
2022/09/04 10:12:02;;;;;;;;;5.00;4.00;;;;;25.09;39.86;101390.75;5020214;28;47052;-82
2022/09/04 10:14:49;;;;;;;;;3.33;3.33;;;;;25.18;39.74;101386.75;5021635;28;45406;-82
2022/09/04 10:17:41;;;;;;;;;4.00;3.00;;;;;25.26;39.70;101383.59;5019595;28;45275;-83
2022/09/04 10:20:25;;;;;;;;;4.00;3.00;;;;;25.33;39.50;101382.31;5019672;28;45490;-82
2022/09/04 10:22:59;;;;;;;;;4.00;4.00;;;;;25.39;39.70;101386.50;5020454;28;45246;-82
2022/09/04 10:25:49;;;;;;;;;3.00;3.00;;;;;25.45;39.60;101381.66;5019501;28;45969;-82
2022/09/04 10:28:30;;;;;;;;;4.00;3.67;;;;;25.50;39.22;101375.97;5021235;28;45369;-82
2022/09/04 10:31:31;;;;;;;;;6.00;6.00;;;;;25.59;39.37;101372.78;5007899;28;45520;-82
2022/09/04 10:34:38;;;;;;;;;5.00;4.67;;;;;25.71;39.15;101374.78;5019262;28;45857;-82
2022/09/04 10:37:30;;;;;;;;;12.25;8.00;;;;;25.81;39.04;101368.84;5017504;28;45503;-83
2022/09/04 10:43:37;;;;;;;;;3.00;3.00;;;;;26.04;38.59;101359.47;5022295;28;44725;-83
2022/09/04 10:46:11;;;;;;;;;5.00;5.00;;;;;26.11;38.62;101358.97;5018880;28;47757;-83
2022/09/04 10:49:18;;;;;;;;;4.00;4.00;;;;;26.21;38.10;101353.06;5019249;28;45528;-83
2022/09/04 10:52:06;;;;;;;;;3.67;3.00;;;;;26.33;37.74;101353.19;5019310;28;45451;-83
2022/09/04 10:55:13;;;;;;;;;2.00;2.00;;;;;26.43;37.74;101356.19;5018550;28;45510;-83
2022/09/04 10:57:51;;;;;;;;;5.00;5.00;;;;;26.52;37.67;101358.38;5018682;28;47143;-83
2022/09/04 11:00:21;;;;;;;;;5.00;5.00;;;;;26.58;37.52;101358.00;5020261;28;45268;-83
2022/09/04 11:03:14;;;;;;;;;3.33;3.33;;;;;26.68;37.12;101357.44;5018810;28;45265;-82
2022/09/04 11:06:01;;;;;;;;;5.67;5.67;;;;;26.80;37.53;101351.28;5018754;28;45432;-83
2022/09/04 11:08:35;;;;;;;;;3.33;3.33;;;;;26.95;37.57;101342.22;5018814;28;47788;-82
2022/09/04 11:11:07;;;;;;;;;6.00;5.50;;;;;27.06;37.08;101342.41;5020300;28;45345;-82
2022/09/04 11:14:05;;;;;;;;;2.33;2.00;;;;;27.19;37.21;101344.38;5018808;28;45391;-82
2022/09/04 11:17:03;;;;;;;;;3.00;3.00;;;;;27.33;36.46;101357.00;5018710;28;45539;-83
2022/09/04 11:19:55;;;;;;;;;5.00;3.67;;;;;27.43;36.31;101344.63;5018640;28;46430;-83
2022/09/04 11:22:45;;;;;;;;;4.00;3.00;;;;;27.52;36.55;101345.84;5011483;28;46456;-83
2022/09/04 11:25:52;;;;;;;;;2.00;2.00;;;;;27.64;36.47;101337.81;5018741;28;45337;-82
2022/09/04 11:28:49;;;;;;;;;4.33;4.33;;;;;27.82;36.08;101343.84;4981227;28;45599;-83
2022/09/04 11:31:32;;;;;;;;;4.00;4.00;;;;;27.98;36.39;101346.38;4981186;28;47204;-82
2022/09/04 11:34:32;;;;;;;;;4.00;4.00;;;;;28.20;35.60;101340.41;5006479;28;45345;-83
2022/09/04 11:37:22;;;;;;;;;3.00;3.00;;;;;28.33;35.31;101346.72;5003829;28;45310;-82
2022/09/04 11:40:13;;;;;;;;;4.00;3.67;;;;;28.43;35.37;101335.22;5001762;28;45335;-83
2022/09/04 11:42:50;;;;;;;;;4.00;4.00;;;;;28.60;34.87;101337.66;5003631;28;45322;-82
2022/09/04 11:45:21;;;;;;;;;4.67;4.00;;;;;28.76;35.21;101342.84;5002519;28;45629;-82
2022/09/04 11:47:53;;;;;;;;;5.67;5.67;;;;;28.89;34.49;101335.59;5017265;28;45169;-82
2022/09/04 11:50:24;;;;;;;;;4.00;4.00;;;;;29.00;33.90;101330.28;5023416;28;45419;-80
2022/09/04 11:53:24;;;;;;;;;4.00;4.00;;;;;29.07;34.15;101329.88;5021805;28;48516;-80
2022/09/04 11:56:18;;;;;;;;;6.00;5.00;;;;;29.20;34.01;101331.56;5022559;28;45328;-83
2022/09/04 11:59:18;;;;;;;;;4.00;4.00;;;;;29.40;34.18;101330.13;5021980;28;45470;-83
2022/09/04 12:02:14;;;;;;;;;5.00;5.00;;;;;29.59;33.44;101324.19;5021316;28;45280;-83
2022/09/04 12:05:14;;;;;;;;;3.00;3.00;;;;;29.79;33.23;101324.56;5022563;28;45496;-82
2022/09/04 12:08:07;;;;;;;;;7.00;6.00;;;;;29.99;32.71;101325.75;5021121;28;45545;-80
2022/09/04 12:10:41;;;;;;;;;4.00;4.00;;;;;30.14;32.77;101326.44;5021458;28;45532;-83
2022/09/04 12:13:21;;;;;;;;;3.00;3.00;;;;;30.27;32.46;101322.69;5008733;28;45447;-83
2022/09/04 12:16:05;;;;;;;;;5.00;4.33;;;;;30.43;32.29;101326.94;5021480;28;47039;-83
2022/09/04 12:18:57;;;;;;;;;5.33;5.33;;;;;30.62;31.87;101323.63;5021255;28;45440;-83
2022/09/04 12:21:42;;;;;;;;;4.33;3.00;;;;;30.69;31.20;101324.88;5022892;28;45397;-82
2022/09/04 12:24:40;;;;;;;;;4.00;4.00;;;;;30.67;31.40;101316.84;5020673;28;45480;-82
2022/09/04 12:27:50;;;;;;;;;2.00;2.00;;;;;30.78;31.14;101314.13;5021100;28;48296;-80
2022/09/04 12:30:24;;;;;;;;;4.00;4.00;;;;;30.98;31.00;101320.72;5013751;28;45226;-80
2022/09/04 12:32:52;;;;;;;;;4.33;4.33;;;;;31.20;30.98;101314.38;5022716;28;45222;-80
2022/09/04 12:35:38;;;;;;;;;3.00;3.00;;;;;31.44;30.74;101307.09;5022305;28;45347;-82
2022/09/04 12:38:51;;;;;;;;;3.00;3.00;;;;;31.71;30.53;101312.09;5020820;28;47235;-82
2022/09/04 12:41:53;;;;;;;;;4.33;4.33;;;;;32.12;29.75;101313.16;5020919;28;45454;-81
2022/09/04 12:44:30;;;;;;;;;6.33;4.33;;;;;32.39;29.81;101307.19;4999398;28;45243;-81
2022/09/04 12:47:12;;;;;;;;;6.00;6.00;;;;;32.65;29.14;101310.38;5020264;28;45431;-82
2022/09/04 12:49:54;;;;;;;;;6.33;6.33;;;;;32.93;28.20;101315.13;5019347;28;47177;-82
2022/09/04 12:52:28;;;;;;;;;3.00;3.00;;;;;33.28;27.88;101312.94;5002411;28;45558;-82